Buoy 41607

sailwx.info

Track history (hours):
 
Tides and Currents Weather Stations Pressure Air Temp Water Temp Dewpoint Dewpoint Depression Visibility Wind Speed Wind Dir Waves Ship Positions

Drifting buoy 41607

Last reported at 2015-Jul-04 08:00 UTC. Time now 2015-Jul-04 15:17 UTC.
Position N 25°31' W 066°30'.

Water temperature 28.6 ° C

Date/timePositionNaut miles runAvg speedWind from/ knotsBaromVisibWave heightAir tempDewpointWater temp
2015-Jul-04 08:00N 25°31' W 066°30'3 0.4 28.6
2015-Jul-03 23:00N 25°28' W 066°29'1 0.9 28.9
2015-Jul-03 22:00N 25°27' W 066°28'1 0.6 29.0
2015-Jul-03 20:00N 25°26' W 066°27'1 0.4 29.1
2015-Jul-03 16:00N 25°25' W 066°27'0 0.4 28.9
2015-Jul-03 15:00N 25°25' W 066°26'0 0.4 28.8
2015-Jul-03 14:00N 25°24' W 066°26'1 1.3 28.7
2015-Jul-03 13:00N 25°23' W 066°25'1 0.2 28.6
2015-Jul-03 09:00N 25°23' W 066°24'0 0.0 28.6
2015-Jul-03 08:00N 25°23' W 066°24'0 0.1 28.6
2015-Jul-03 06:00N 25°23' W 066°24'0 0.1 28.6
2015-Jul-03 05:00N 25°23' W 066°24'2 0.8 28.6
2015-Jul-03 03:00N 25°23' W 066°23'0 0.4 28.7
2015-Jul-03 02:00N 25°23' W 066°22'0 0.3 28.7
2015-Jul-03 01:00N 25°23' W 066°22'1 1.0 28.7
2015-Jul-03 00:00N 25°22' W 066°22'1 0.3 28.7
2015-Jul-02 22:00N 25°23' W 066°22'1 0.5 28.8
2015-Jul-02 20:00N 25°22' W 066°22'3 0.3 28.8
2015-Jul-02 11:00N 25°20' W 066°20'4 0.4 28.5
2015-Jul-02 02:00N 25°20' W 066°15'0 0.1 28.6
2015-Jul-02 01:00N 25°20' W 066°15'4 0.4 28.6
2015-Jul-01 14:00N 25°18' W 066°11'1 0.8 28.5
2015-Jul-01 13:00N 25°18' W 066°10'0 0.2 28.5
2015-Jul-01 11:00N 25°17' W 066°10'0 0.2 28.4
2015-Jul-01 10:00N 25°17' W 066°10'2 1.9 28.4
2015-Jul-01 09:00N 25°16' W 066°08'1 0.8 28.4
2015-Jul-01 08:00N 25°17' W 066°09'0 0.2 28.4
2015-Jul-01 07:00N 25°17' W 066°09'4 0.5 28.4
2015-Jun-30 23:00N 25°16' W 066°05'1 0.6 28.3
2015-Jun-30 21:00N 25°16' W 066°03'1 0.6 28.4
2015-Jun-30 20:00N 25°15' W 066°03'3 0.7 28.4
2015-Jun-30 16:00N 25°14' W 065°60'4 0.7 28.2
2015-Jun-30 10:00N 25°13' W 065°55'6 0.8 28.0
2015-Jun-30 02:00N 25°12' W 065°48'8 0.9 28.3
2015-Jun-29 17:00N 25°09' W 065°40'5 1.1 28.5
2015-Jun-29 13:00N 25°07' W 065°35'1 0.7 28.2
2015-Jun-29 11:00N 25°07' W 065°33'2 1.2 28.2
2015-Jun-29 09:00N 25°07' W 065°31'7 0.7 28.2
2015-Jun-28 23:00N 25°06' W 065°23'17 0.7 28.2
2015-Jun-27 23:00N 25°03' W 065°05'18 0.5 27.9
2015-Jun-26 14:00N 25°01' W 064°45'3 0.5 27.9
2015-Jun-26 08:00N 25°01' W 064°42'5 0.9 27.9
2015-Jun-26 02:00N 25°03' W 064°36'0 0.3 28.0
2015-Jun-26 01:00N 25°04' W 064°36'1 0.3 28.0
2015-Jun-25 22:00N 25°04' W 064°36'1 0.8 28.1
2015-Jun-25 21:00N 25°05' W 064°35'0 0.5 28.1
2015-Jun-25 20:00N 25°05' W 064°35'0 0.0 28.2
2015-Jun-25 19:00N 25°05' W 064°35'1 0.4 28.2
2015-Jun-25 17:00N 25°05' W 064°34'1 1.4 28.2
2015-Jun-25 16:00N 25°05' W 064°32'0 0.0 28.1
2015-Jun-25 15:00N 25°05' W 064°32'1 1.4 28.1
2015-Jun-25 14:00N 25°06' W 064°31'0 0.0 28.1
2015-Jun-25 13:00N 25°06' W 064°31'0 0.5 28.1
2015-Jun-25 12:00N 25°05' W 064°31'1 0.8 28.0
2015-Jun-25 11:00N 25°06' W 064°30'1 0.7 28.0
2015-Jun-25 10:00N 25°06' W 064°30'0 0.2 28.0
2015-Jun-25 09:00N 25°06' W 064°30'1 0.7 28.0
2015-Jun-25 08:00N 25°06' W 064°29'7 0.8 28.1
2015-Jun-24 23:00N 25°09' W 064°22'1 0.5 28.3
2015-Jun-24 22:00N 25°09' W 064°22'1 0.8 28.3
2015-Jun-24 21:00N 25°10' W 064°22'1 0.6 28.4
2015-Jun-24 20:00N 25°10' W 064°21'0 0.0 28.4
2015-Jun-24 19:00N 25°10' W 064°21'7 0.6 28.3
2015-Jun-24 08:00N 25°13' W 064°15'   27.9
Track history (hours):
 
Tides and Currents Weather Stations Pressure Air Temp Water Temp Dewpoint Dewpoint Depression Visibility Wind Speed Wind Dir Waves Ship Positions

Drifting buoy 41607

Last reported at 2015-Jul-04 08:00 UTC. Time now 2015-Jul-04 15:17 UTC.
Position N 25°31' W 066°30'.

Water temperature 28.6 ° C

Date/timePositionNaut miles runAvg speedWind from/ knotsBaromVisibWave heightAir tempDewpointWater temp
2015-Jul-04 08:00N 25°31' W 066°30'3 0.4 28.6
2015-Jul-03 23:00N 25°28' W 066°29'1 0.9 28.9
2015-Jul-03 22:00N 25°27' W 066°28'1 0.6 29.0
2015-Jul-03 20:00N 25°26' W 066°27'1 0.4 29.1
2015-Jul-03 16:00N 25°25' W 066°27'0 0.4 28.9
2015-Jul-03 15:00N 25°25' W 066°26'0 0.4 28.8
2015-Jul-03 14:00N 25°24' W 066°26'1 1.3 28.7
2015-Jul-03 13:00N 25°23' W 066°25'1 0.2 28.6
2015-Jul-03 09:00N 25°23' W 066°24'0 0.0 28.6
2015-Jul-03 08:00N 25°23' W 066°24'0 0.1 28.6
2015-Jul-03 06:00N 25°23' W 066°24'0 0.1 28.6
2015-Jul-03 05:00N 25°23' W 066°24'2 0.8 28.6
2015-Jul-03 03:00N 25°23' W 066°23'0 0.4 28.7
2015-Jul-03 02:00N 25°23' W 066°22'0 0.3 28.7
2015-Jul-03 01:00N 25°23' W 066°22'1 1.0 28.7
2015-Jul-03 00:00N 25°22' W 066°22'1 0.3 28.7
2015-Jul-02 22:00N 25°23' W 066°22'1 0.5 28.8
2015-Jul-02 20:00N 25°22' W 066°22'3 0.3 28.8
2015-Jul-02 11:00N 25°20' W 066°20'4 0.4 28.5
2015-Jul-02 02:00N 25°20' W 066°15'0 0.1 28.6
2015-Jul-02 01:00N 25°20' W 066°15'4 0.4 28.6
2015-Jul-01 14:00N 25°18' W 066°11'1 0.8 28.5
2015-Jul-01 13:00N 25°18' W 066°10'0 0.2 28.5
2015-Jul-01 11:00N 25°17' W 066°10'0 0.2 28.4
2015-Jul-01 10:00N 25°17' W 066°10'2 1.9 28.4
2015-Jul-01 09:00N 25°16' W 066°08'1 0.8 28.4
2015-Jul-01 08:00N 25°17' W 066°09'0 0.2 28.4
2015-Jul-01 07:00N 25°17' W 066°09'4 0.5 28.4
2015-Jun-30 23:00N 25°16' W 066°05'1 0.6 28.3
2015-Jun-30 21:00N 25°16' W 066°03'1 0.6 28.4
2015-Jun-30 20:00N 25°15' W 066°03'3 0.7 28.4
2015-Jun-30 16:00N 25°14' W 065°60'4 0.7 28.2
2015-Jun-30 10:00N 25°13' W 065°55'6 0.8 28.0
2015-Jun-30 02:00N 25°12' W 065°48'8 0.9 28.3
2015-Jun-29 17:00N 25°09' W 065°40'5 1.1 28.5
2015-Jun-29 13:00N 25°07' W 065°35'1 0.7 28.2
2015-Jun-29 11:00N 25°07' W 065°33'2 1.2 28.2
2015-Jun-29 09:00N 25°07' W 065°31'7 0.7 28.2
2015-Jun-28 23:00N 25°06' W 065°23'17 0.7 28.2
2015-Jun-27 23:00N 25°03' W 065°05'18 0.5 27.9
2015-Jun-26 14:00N 25°01' W 064°45'3 0.5 27.9
2015-Jun-26 08:00N 25°01' W 064°42'5 0.9 27.9
2015-Jun-26 02:00N 25°03' W 064°36'0 0.3 28.0
2015-Jun-26 01:00N 25°04' W 064°36'1 0.3 28.0
2015-Jun-25 22:00N 25°04' W 064°36'1 0.8 28.1
2015-Jun-25 21:00N 25°05' W 064°35'0 0.5 28.1
2015-Jun-25 20:00N 25°05' W 064°35'0 0.0 28.2
2015-Jun-25 19:00N 25°05' W 064°35'1 0.4 28.2
2015-Jun-25 17:00N 25°05' W 064°34'1 1.4 28.2
2015-Jun-25 16:00N 25°05' W 064°32'0 0.0 28.1
2015-Jun-25 15:00N 25°05' W 064°32'1 1.4 28.1
2015-Jun-25 14:00N 25°06' W 064°31'0 0.0 28.1
2015-Jun-25 13:00N 25°06' W 064°31'0 0.5 28.1
2015-Jun-25 12:00N 25°05' W 064°31'1 0.8 28.0
2015-Jun-25 11:00N 25°06' W 064°30'1 0.7 28.0
2015-Jun-25 10:00N 25°06' W 064°30'0 0.2 28.0
2015-Jun-25 09:00N 25°06' W 064°30'1 0.7 28.0
2015-Jun-25 08:00N 25°06' W 064°29'7 0.8 28.1
2015-Jun-24 23:00N 25°09' W 064°22'1 0.5 28.3
2015-Jun-24 22:00N 25°09' W 064°22'1 0.8 28.3
2015-Jun-24 21:00N 25°10' W 064°22'1 0.6 28.4
2015-Jun-24 20:00N 25°10' W 064°21'0 0.0 28.4
2015-Jun-24 19:00N 25°10' W 064°21'7 0.6 28.3
2015-Jun-24 08:00N 25°13' W 064°15'   27.9

Dump ship's entire track history